sensor_id;sensor_type;location;lat;lon;timestamp;P1;durP1;ratioP1;P2;durP2;ratioP2
13580;SDS011;6861;46.170;7.222;2023-05-17T00:00:51;1.23;;;0.77;;
13580;SDS011;6861;46.170;7.222;2023-05-17T00:03:20;1.45;;;0.82;;
13580;SDS011;6861;46.170;7.222;2023-05-17T00:05:48;1.10;;;1.00;;
13580;SDS011;6861;46.170;7.222;2023-05-17T00:08:17;3.10;;;0.80;;
13580;SDS011;6861;46.170;7.222;2023-05-17T00:10:45;0.95;;;0.80;;
13580;SDS011;6861;46.170;7.222;2023-05-17T00:13:13;0.70;;;0.70;;
13580;SDS011;6861;46.170;7.222;2023-05-17T00:15:41;1.23;;;0.68;;
13580;SDS011;6861;46.170;7.222;2023-05-17T00:18:10;1.35;;;0.80;;
13580;SDS011;6861;46.170;7.222;2023-05-17T00:20:39;1.45;;;0.80;;
13580;SDS011;6861;46.170;7.222;2023-05-17T00:23:08;0.88;;;0.80;;
13580;SDS011;6861;46.170;7.222;2023-05-17T00:25:36;0.80;;;0.80;;
13580;SDS011;6861;46.170;7.222;2023-05-17T00:28:04;1.60;;;0.80;;
13580;SDS011;6861;46.170;7.222;2023-05-17T00:30:32;1.58;;;0.63;;
13580;SDS011;6861;46.170;7.222;2023-05-17T00:33:00;1.50;;;0.70;;
13580;SDS011;6861;46.170;7.222;2023-05-17T00:35:29;0.65;;;0.60;;
13580;SDS011;6861;46.170;7.222;2023-05-17T00:37:59;0.70;;;0.70;;
13580;SDS011;6861;46.170;7.222;2023-05-17T00:40:27;1.27;;;0.70;;
13580;SDS011;6861;46.170;7.222;2023-05-17T00:42:55;0.90;;;0.70;;
13580;SDS011;6861;46.170;7.222;2023-05-17T00:45:24;0.60;;;0.60;;
13580;SDS011;6861;46.170;7.222;2023-05-17T00:47:52;0.93;;;0.75;;
13580;SDS011;6861;46.170;7.222;2023-05-17T00:50:21;0.73;;;0.70;;
13580;SDS011;6861;46.170;7.222;2023-05-17T00:52:49;0.60;;;0.60;;
13580;SDS011;6861;46.170;7.222;2023-05-17T00:55:19;1.05;;;0.70;;
13580;SDS011;6861;46.170;7.222;2023-05-17T00:57:48;0.80;;;0.80;;
13580;SDS011;6861;46.170;7.222;2023-05-17T01:00:16;2.15;;;0.50;;
13580;SDS011;6861;46.170;7.222;2023-05-17T01:02:45;0.85;;;0.60;;
13580;SDS011;6861;46.170;7.222;2023-05-17T01:05:14;0.93;;;0.80;;
13580;SDS011;6861;46.170;7.222;2023-05-17T01:07:42;0.47;;;0.47;;
13580;SDS011;6861;46.170;7.222;2023-05-17T01:10:12;0.50;;;0.50;;
13580;SDS011;6861;46.170;7.222;2023-05-17T01:12:47;0.60;;;0.60;;
13580;SDS011;6861;46.170;7.222;2023-05-17T01:15:26;0.70;;;0.70;;
13580;SDS011;6861;46.170;7.222;2023-05-17T01:17:59;1.58;;;0.80;;
13580;SDS011;6861;46.170;7.222;2023-05-17T01:20:37;0.82;;;0.68;;
13580;SDS011;6861;46.170;7.222;2023-05-17T01:23:09;0.75;;;0.60;;
13580;SDS011;6861;46.170;7.222;2023-05-17T01:25:52;0.55;;;0.52;;
13580;SDS011;6861;46.170;7.222;2023-05-17T01:28:25;0.95;;;0.60;;
13580;SDS011;6861;46.170;7.222;2023-05-17T01:30:56;0.77;;;0.57;;
13580;SDS011;6861;46.170;7.222;2023-05-17T01:33:27;0.60;;;0.60;;
13580;SDS011;6861;46.170;7.222;2023-05-17T01:35:57;1.52;;;0.70;;
13580;SDS011;6861;46.170;7.222;2023-05-17T01:38:25;1.17;;;0.70;;
13580;SDS011;6861;46.170;7.222;2023-05-17T01:40:54;1.00;;;0.80;;
13580;SDS011;6861;46.170;7.222;2023-05-17T01:43:28;0.80;;;0.70;;
13580;SDS011;6861;46.170;7.222;2023-05-17T01:46:04;2.50;;;0.70;;
13580;SDS011;6861;46.170;7.222;2023-05-17T01:48:39;1.25;;;0.70;;
13580;SDS011;6861;46.170;7.222;2023-05-17T01:51:16;1.70;;;0.70;;
13580;SDS011;6861;46.170;7.222;2023-05-17T01:53:47;1.42;;;0.68;;
13580;SDS011;6861;46.170;7.222;2023-05-17T01:56:19;2.00;;;0.60;;
13580;SDS011;6861;46.170;7.222;2023-05-17T01:58:55;0.93;;;0.70;;
13580;SDS011;6861;46.170;7.222;2023-05-17T02:01:25;2.15;;;0.60;;
13580;SDS011;6861;46.170;7.222;2023-05-17T02:03:55;0.65;;;0.47;;
13580;SDS011;6861;46.170;7.222;2023-05-17T02:06:24;3.17;;;0.80;;
13580;SDS011;6861;46.170;7.222;2023-05-17T02:08:52;0.70;;;0.50;;
13580;SDS011;6861;46.170;7.222;2023-05-17T02:11:20;0.90;;;0.50;;
13580;SDS011;6861;46.170;7.222;2023-05-17T02:13:49;0.60;;;0.50;;
13580;SDS011;6861;46.170;7.222;2023-05-17T02:16:18;1.15;;;0.50;;
13580;SDS011;6861;46.170;7.222;2023-05-17T02:18:46;0.95;;;0.50;;
13580;SDS011;6861;46.170;7.222;2023-05-17T02:21:15;1.20;;;0.70;;
13580;SDS011;6861;46.170;7.222;2023-05-17T02:23:43;1.30;;;0.70;;
13580;SDS011;6861;46.170;7.222;2023-05-17T02:26:12;0.73;;;0.60;;
13580;SDS011;6861;46.170;7.222;2023-05-17T02:28:40;0.93;;;0.60;;
13580;SDS011;6861;46.170;7.222;2023-05-17T02:31:08;1.35;;;0.57;;
13580;SDS011;6861;46.170;7.222;2023-05-17T02:33:38;1.10;;;0.63;;
13580;SDS011;6861;46.170;7.222;2023-05-17T02:36:06;1.67;;;0.60;;
13580;SDS011;6861;46.170;7.222;2023-05-17T02:38:34;0.95;;;0.60;;
13580;SDS011;6861;46.170;7.222;2023-05-17T02:41:02;0.50;;;0.50;;
13580;SDS011;6861;46.170;7.222;2023-05-17T02:43:31;1.30;;;0.60;;
13580;SDS011;6861;46.170;7.222;2023-05-17T02:45:59;2.05;;;0.65;;
13580;SDS011;6861;46.170;7.222;2023-05-17T02:48:27;0.85;;;0.50;;
13580;SDS011;6861;46.170;7.222;2023-05-17T02:50:57;2.05;;;0.60;;
13580;SDS011;6861;46.170;7.222;2023-05-17T02:53:25;0.57;;;0.47;;
13580;SDS011;6861;46.170;7.222;2023-05-17T02:55:53;1.02;;;0.50;;
13580;SDS011;6861;46.170;7.222;2023-05-17T02:58:23;0.63;;;0.40;;
13580;SDS011;6861;46.170;7.222;2023-05-17T03:00:52;0.80;;;0.60;;
13580;SDS011;6861;46.170;7.222;2023-05-17T03:03:20;0.50;;;0.43;;
13580;SDS011;6861;46.170;7.222;2023-05-17T03:05:49;0.82;;;0.52;;
13580;SDS011;6861;46.170;7.222;2023-05-17T03:08:18;0.80;;;0.70;;
13580;SDS011;6861;46.170;7.222;2023-05-17T03:10:47;0.95;;;0.63;;
13580;SDS011;6861;46.170;7.222;2023-05-17T03:13:15;0.60;;;0.60;;
13580;SDS011;6861;46.170;7.222;2023-05-17T03:15:43;0.63;;;0.50;;
13580;SDS011;6861;46.170;7.222;2023-05-17T03:18:11;0.98;;;0.70;;
13580;SDS011;6861;46.170;7.222;2023-05-17T03:20:40;0.73;;;0.60;;
13580;SDS011;6861;46.170;7.222;2023-05-17T03:23:08;0.57;;;0.57;;
13580;SDS011;6861;46.170;7.222;2023-05-17T03:25:37;0.55;;;0.50;;
13580;SDS011;6861;46.170;7.222;2023-05-17T03:28:05;1.95;;;0.70;;
13580;SDS011;6861;46.170;7.222;2023-05-17T03:30:33;1.15;;;0.70;;
13580;SDS011;6861;46.170;7.222;2023-05-17T03:33:02;0.60;;;0.50;;
13580;SDS011;6861;46.170;7.222;2023-05-17T03:35:30;1.35;;;0.70;;
13580;SDS011;6861;46.170;7.222;2023-05-17T03:37:59;0.70;;;0.70;;
13580;SDS011;6861;46.170;7.222;2023-05-17T03:40:27;3.95;;;0.70;;
13580;SDS011;6861;46.170;7.222;2023-05-17T03:42:56;1.27;;;0.90;;
13580;SDS011;6861;46.170;7.222;2023-05-17T03:45:25;1.73;;;0.80;;
13580;SDS011;6861;46.170;7.222;2023-05-17T03:47:54;1.45;;;0.80;;
13580;SDS011;6861;46.170;7.222;2023-05-17T03:50:22;1.25;;;0.60;;
13580;SDS011;6861;46.170;7.222;2023-05-17T03:52:50;1.63;;;0.70;;
13580;SDS011;6861;46.170;7.222;2023-05-17T03:55:18;1.10;;;0.70;;
13580;SDS011;6861;46.170;7.222;2023-05-17T03:57:47;1.45;;;0.60;;
13580;SDS011;6861;46.170;7.222;2023-05-17T04:00:17;0.75;;;0.63;;
13580;SDS011;6861;46.170;7.222;2023-05-17T04:02:47;1.25;;;0.40;;
13580;SDS011;6861;46.170;7.222;2023-05-17T04:05:15;1.63;;;0.57;;
13580;SDS011;6861;46.170;7.222;2023-05-17T04:07:44;0.70;;;0.70;;
13580;SDS011;6861;46.170;7.222;2023-05-17T04:10:12;0.70;;;0.57;;
13580;SDS011;6861;46.170;7.222;2023-05-17T04:12:40;0.93;;;0.60;;
13580;SDS011;6861;46.170;7.222;2023-05-17T04:15:09;1.27;;;0.65;;
13580;SDS011;6861;46.170;7.222;2023-05-17T04:17:39;0.55;;;0.55;;
13580;SDS011;6861;46.170;7.222;2023-05-17T04:20:07;2.20;;;0.80;;
13580;SDS011;6861;46.170;7.222;2023-05-17T04:22:36;1.15;;;0.80;;
13580;SDS011;6861;46.170;7.222;2023-05-17T04:25:05;1.27;;;0.80;;
13580;SDS011;6861;46.170;7.222;2023-05-17T04:27:33;1.20;;;0.88;;
13580;SDS011;6861;46.170;7.222;2023-05-17T04:30:02;1.00;;;0.80;;
13580;SDS011;6861;46.170;7.222;2023-05-17T04:32:31;2.10;;;1.00;;
13580;SDS011;6861;46.170;7.222;2023-05-17T04:35:01;1.10;;;0.68;;
13580;SDS011;6861;46.170;7.222;2023-05-17T04:37:29;1.33;;;1.02;;
13580;SDS011;6861;46.170;7.222;2023-05-17T04:39:58;1.02;;;0.80;;
13580;SDS011;6861;46.170;7.222;2023-05-17T04:42:26;1.90;;;1.45;;
13580;SDS011;6861;46.170;7.222;2023-05-17T04:44:54;2.13;;;1.27;;
13580;SDS011;6861;46.170;7.222;2023-05-17T04:47:23;1.33;;;1.00;;
13580;SDS011;6861;46.170;7.222;2023-05-17T04:49:51;3.00;;;1.10;;
13580;SDS011;6861;46.170;7.222;2023-05-17T04:52:21;3.85;;;1.00;;
13580;SDS011;6861;46.170;7.222;2023-05-17T04:54:49;0.85;;;0.73;;
13580;SDS011;6861;46.170;7.222;2023-05-17T04:57:17;1.40;;;0.60;;
13580;SDS011;6861;46.170;7.222;2023-05-17T04:59:46;1.45;;;0.80;;
13580;SDS011;6861;46.170;7.222;2023-05-17T05:02:15;0.80;;;0.60;;
13580;SDS011;6861;46.170;7.222;2023-05-17T05:04:43;1.00;;;0.70;;
13580;SDS011;6861;46.170;7.222;2023-05-17T05:07:11;1.02;;;0.70;;
13580;SDS011;6861;46.170;7.222;2023-05-17T05:09:40;2.22;;;0.90;;
13580;SDS011;6861;46.170;7.222;2023-05-17T05:12:09;1.95;;;0.60;;
13580;SDS011;6861;46.170;7.222;2023-05-17T05:14:37;1.17;;;0.80;;
13580;SDS011;6861;46.170;7.222;2023-05-17T05:17:05;1.42;;;0.98;;
13580;SDS011;6861;46.170;7.222;2023-05-17T05:19:34;2.30;;;1.40;;
13580;SDS011;6861;46.170;7.222;2023-05-17T05:22:02;1.55;;;1.45;;
13580;SDS011;6861;46.170;7.222;2023-05-17T05:24:30;3.13;;;1.63;;
13580;SDS011;6861;46.170;7.222;2023-05-17T05:27:00;3.30;;;1.35;;
13580;SDS011;6861;46.170;7.222;2023-05-17T05:29:32;1.20;;;1.10;;
13580;SDS011;6861;46.170;7.222;2023-05-17T05:32:00;1.35;;;0.90;;
13580;SDS011;6861;46.170;7.222;2023-05-17T05:34:28;1.77;;;1.05;;
13580;SDS011;6861;46.170;7.222;2023-05-17T05:36:57;1.73;;;0.90;;
13580;SDS011;6861;46.170;7.222;2023-05-17T05:39:25;3.45;;;1.00;;
13580;SDS011;6861;46.170;7.222;2023-05-17T05:41:54;1.60;;;0.80;;
13580;SDS011;6861;46.170;7.222;2023-05-17T05:44:24;2.33;;;0.80;;
13580;SDS011;6861;46.170;7.222;2023-05-17T05:46:52;1.70;;;0.90;;
13580;SDS011;6861;46.170;7.222;2023-05-17T05:49:20;2.45;;;0.90;;
13580;SDS011;6861;46.170;7.222;2023-05-17T05:51:49;1.70;;;0.70;;
13580;SDS011;6861;46.170;7.222;2023-05-17T05:54:17;2.95;;;0.77;;
13580;SDS011;6861;46.170;7.222;2023-05-17T05:56:45;1.75;;;0.70;;
13580;SDS011;6861;46.170;7.222;2023-05-17T05:59:14;1.23;;;0.60;;
13580;SDS011;6861;46.170;7.222;2023-05-17T06:01:43;1.10;;;0.60;;
13580;SDS011;6861;46.170;7.222;2023-05-17T06:04:12;1.17;;;0.65;;
13580;SDS011;6861;46.170;7.222;2023-05-17T06:06:40;2.30;;;1.10;;
13580;SDS011;6861;46.170;7.222;2023-05-17T06:09:10;1.00;;;0.60;;
13580;SDS011;6861;46.170;7.222;2023-05-17T06:11:39;0.98;;;0.57;;
13580;SDS011;6861;46.170;7.222;2023-05-17T06:14:07;1.92;;;0.68;;
13580;SDS011;6861;46.170;7.222;2023-05-17T06:16:35;1.50;;;0.47;;
13580;SDS011;6861;46.170;7.222;2023-05-17T06:19:05;0.60;;;0.47;;
13580;SDS011;6861;46.170;7.222;2023-05-17T06:21:33;1.48;;;0.50;;
13580;SDS011;6861;46.170;7.222;2023-05-17T06:24:01;1.27;;;0.75;;
13580;SDS011;6861;46.170;7.222;2023-05-17T06:26:30;4.00;;;0.80;;
13580;SDS011;6861;46.170;7.222;2023-05-17T06:28:58;2.25;;;0.70;;
13580;SDS011;6861;46.170;7.222;2023-05-17T06:31:26;1.00;;;0.60;;
13580;SDS011;6861;46.170;7.222;2023-05-17T06:33:55;1.83;;;0.68;;
13580;SDS011;6861;46.170;7.222;2023-05-17T06:36:25;2.67;;;0.73;;
13580;SDS011;6861;46.170;7.222;2023-05-17T06:38:53;2.75;;;0.65;;
13580;SDS011;6861;46.170;7.222;2023-05-17T06:41:21;1.42;;;0.65;;
13580;SDS011;6861;46.170;7.222;2023-05-17T06:43:50;0.70;;;0.50;;
13580;SDS011;6861;46.170;7.222;2023-05-17T06:46:18;0.80;;;0.50;;
13580;SDS011;6861;46.170;7.222;2023-05-17T06:48:46;3.13;;;0.70;;
13580;SDS011;6861;46.170;7.222;2023-05-17T06:51:16;0.60;;;0.50;;
13580;SDS011;6861;46.170;7.222;2023-05-17T06:53:46;1.20;;;0.50;;
13580;SDS011;6861;46.170;7.222;2023-05-17T06:56:15;1.88;;;0.60;;
13580;SDS011;6861;46.170;7.222;2023-05-17T06:58:44;0.80;;;0.60;;
13580;SDS011;6861;46.170;7.222;2023-05-17T07:01:12;1.30;;;0.57;;
13580;SDS011;6861;46.170;7.222;2023-05-17T07:03:40;1.38;;;0.90;;
13580;SDS011;6861;46.170;7.222;2023-05-17T07:06:08;4.90;;;0.80;;
13580;SDS011;6861;46.170;7.222;2023-05-17T07:08:37;3.88;;;0.98;;
13580;SDS011;6861;46.170;7.222;2023-05-17T07:11:07;1.08;;;0.63;;
13580;SDS011;6861;46.170;7.222;2023-05-17T07:13:35;1.33;;;0.60;;
13580;SDS011;6861;46.170;7.222;2023-05-17T07:16:05;2.42;;;0.80;;
13580;SDS011;6861;46.170;7.222;2023-05-17T07:18:34;2.17;;;0.55;;
13580;SDS011;6861;46.170;7.222;2023-05-17T07:21:03;0.93;;;0.65;;
13580;SDS011;6861;46.170;7.222;2023-05-17T07:23:31;1.33;;;0.60;;
13580;SDS011;6861;46.170;7.222;2023-05-17T07:25:59;1.48;;;0.50;;
13580;SDS011;6861;46.170;7.222;2023-05-17T07:28:29;1.15;;;0.60;;
13580;SDS011;6861;46.170;7.222;2023-05-17T07:30:58;1.77;;;0.50;;
13580;SDS011;6861;46.170;7.222;2023-05-17T07:33:27;2.20;;;0.60;;
13580;SDS011;6861;46.170;7.222;2023-05-17T07:35:55;2.47;;;0.50;;
13580;SDS011;6861;46.170;7.222;2023-05-17T07:38:24;0.65;;;0.40;;
13580;SDS011;6861;46.170;7.222;2023-05-17T07:40:52;1.35;;;0.50;;
13580;SDS011;6861;46.170;7.222;2023-05-17T07:43:20;1.38;;;0.60;;
13580;SDS011;6861;46.170;7.222;2023-05-17T07:45:50;2.28;;;0.60;;
13580;SDS011;6861;46.170;7.222;2023-05-17T07:48:18;1.52;;;0.80;;
13580;SDS011;6861;46.170;7.222;2023-05-17T07:50:47;2.75;;;0.60;;
13580;SDS011;6861;46.170;7.222;2023-05-17T07:53:15;2.47;;;0.70;;
13580;SDS011;6861;46.170;7.222;2023-05-17T07:55:43;1.65;;;0.70;;
13580;SDS011;6861;46.170;7.222;2023-05-17T07:58:15;1.83;;;0.60;;
13580;SDS011;6861;46.170;7.222;2023-05-17T08:00:43;1.50;;;0.80;;
13580;SDS011;6861;46.170;7.222;2023-05-17T08:03:12;1.35;;;0.60;;
13580;SDS011;6861;46.170;7.222;2023-05-17T08:05:42;2.60;;;0.75;;
13580;SDS011;6861;46.170;7.222;2023-05-17T08:08:11;1.30;;;0.70;;
13580;SDS011;6861;46.170;7.222;2023-05-17T08:10:39;2.03;;;0.70;;
13580;SDS011;6861;46.170;7.222;2023-05-17T08:13:08;2.15;;;0.70;;
13580;SDS011;6861;46.170;7.222;2023-05-17T08:15:36;3.28;;;0.90;;
13580;SDS011;6861;46.170;7.222;2023-05-17T08:18:05;1.23;;;0.60;;
13580;SDS011;6861;46.170;7.222;2023-05-17T18:20:37;1.20;;;0.70;;
13580;SDS011;6861;46.170;7.222;2023-05-17T18:23:05;1.60;;;0.90;;
13580;SDS011;6861;46.170;7.222;2023-05-17T18:25:34;2.13;;;0.90;;
13580;SDS011;6861;46.170;7.222;2023-05-17T18:28:02;0.95;;;0.77;;
13580;SDS011;6861;46.170;7.222;2023-05-17T18:30:34;1.80;;;1.00;;
13580;SDS011;6861;46.170;7.222;2023-05-17T18:33:02;1.45;;;0.73;;
13580;SDS011;6861;46.170;7.222;2023-05-17T18:35:32;1.98;;;1.33;;
13580;SDS011;6861;46.170;7.222;2023-05-17T18:38:03;1.52;;;0.85;;
13580;SDS011;6861;46.170;7.222;2023-05-17T18:40:31;0.80;;;0.80;;
13580;SDS011;6861;46.170;7.222;2023-05-17T18:43:00;1.70;;;0.73;;
13580;SDS011;6861;46.170;7.222;2023-05-17T18:45:28;4.53;;;1.17;;
13580;SDS011;6861;46.170;7.222;2023-05-17T18:47:57;1.60;;;0.90;;
13580;SDS011;6861;46.170;7.222;2023-05-17T18:50:25;1.02;;;0.80;;
13580;SDS011;6861;46.170;7.222;2023-05-17T18:52:54;3.17;;;0.80;;
13580;SDS011;6861;46.170;7.222;2023-05-17T18:55:24;0.88;;;0.60;;
13580;SDS011;6861;46.170;7.222;2023-05-17T18:57:52;1.50;;;0.82;;
13580;SDS011;6861;46.170;7.222;2023-05-17T19:00:20;1.35;;;0.88;;
13580;SDS011;6861;46.170;7.222;2023-05-17T19:02:49;1.77;;;0.85;;
13580;SDS011;6861;46.170;7.222;2023-05-17T19:05:17;1.58;;;0.60;;
13580;SDS011;6861;46.170;7.222;2023-05-17T19:07:45;4.47;;;0.80;;
13580;SDS011;6861;46.170;7.222;2023-05-17T19:10:13;1.13;;;0.80;;
13580;SDS011;6861;46.170;7.222;2023-05-17T19:12:43;1.52;;;0.90;;
13580;SDS011;6861;46.170;7.222;2023-05-17T19:15:11;3.90;;;1.00;;
13580;SDS011;6861;46.170;7.222;2023-05-17T19:17:40;1.42;;;0.82;;
13580;SDS011;6861;46.170;7.222;2023-05-17T19:20:08;1.00;;;0.60;;
13580;SDS011;6861;46.170;7.222;2023-05-17T19:22:37;1.17;;;0.70;;
13580;SDS011;6861;46.170;7.222;2023-05-17T19:25:06;2.00;;;0.82;;
13580;SDS011;6861;46.170;7.222;2023-05-17T19:27:35;4.18;;;1.10;;
13580;SDS011;6861;46.170;7.222;2023-05-17T19:30:05;1.88;;;0.75;;
13580;SDS011;6861;46.170;7.222;2023-05-17T19:32:34;2.25;;;0.90;;
13580;SDS011;6861;46.170;7.222;2023-05-17T19:35:03;1.65;;;0.90;;
13580;SDS011;6861;46.170;7.222;2023-05-17T19:37:32;1.20;;;0.93;;
13580;SDS011;6861;46.170;7.222;2023-05-17T19:40:00;2.13;;;1.00;;
13580;SDS011;6861;46.170;7.222;2023-05-17T19:42:30;2.00;;;0.88;;
13580;SDS011;6861;46.170;7.222;2023-05-17T19:44:58;1.80;;;0.77;;
13580;SDS011;6861;46.170;7.222;2023-05-17T19:47:28;1.95;;;0.75;;
13580;SDS011;6861;46.170;7.222;2023-05-17T19:49:56;1.05;;;0.60;;
13580;SDS011;6861;46.170;7.222;2023-05-17T19:52:24;1.25;;;0.70;;
13580;SDS011;6861;46.170;7.222;2023-05-17T19:54:53;2.17;;;1.00;;
13580;SDS011;6861;46.170;7.222;2023-05-17T19:57:21;1.90;;;0.85;;
13580;SDS011;6861;46.170;7.222;2023-05-17T19:59:49;1.10;;;0.80;;
13580;SDS011;6861;46.170;7.222;2023-05-17T20:02:17;2.20;;;1.10;;
13580;SDS011;6861;46.170;7.222;2023-05-17T20:04:47;2.63;;;0.85;;
13580;SDS011;6861;46.170;7.222;2023-05-17T20:07:16;1.38;;;1.00;;
13580;SDS011;6861;46.170;7.222;2023-05-17T20:09:45;2.45;;;1.00;;
13580;SDS011;6861;46.170;7.222;2023-05-17T20:12:14;1.02;;;0.80;;
13580;SDS011;6861;46.170;7.222;2023-05-17T20:14:42;1.00;;;0.90;;
13580;SDS011;6861;46.170;7.222;2023-05-17T20:17:10;1.30;;;1.00;;
13580;SDS011;6861;46.170;7.222;2023-05-17T20:19:39;1.10;;;0.90;;
13580;SDS011;6861;46.170;7.222;2023-05-17T20:22:09;1.88;;;0.90;;
13580;SDS011;6861;46.170;7.222;2023-05-17T20:24:38;1.65;;;0.90;;
13580;SDS011;6861;46.170;7.222;2023-05-17T20:27:08;0.93;;;0.80;;
13580;SDS011;6861;46.170;7.222;2023-05-17T20:29:36;1.42;;;0.85;;
13580;SDS011;6861;46.170;7.222;2023-05-17T20:32:05;1.50;;;0.85;;
13580;SDS011;6861;46.170;7.222;2023-05-17T20:34:34;1.70;;;0.90;;
13580;SDS011;6861;46.170;7.222;2023-05-17T20:37:02;2.28;;;1.08;;
13580;SDS011;6861;46.170;7.222;2023-05-17T20:39:32;1.23;;;0.70;;
13580;SDS011;6861;46.170;7.222;2023-05-17T20:42:00;1.80;;;1.00;;
13580;SDS011;6861;46.170;7.222;2023-05-17T20:44:29;2.60;;;0.90;;
13580;SDS011;6861;46.170;7.222;2023-05-17T20:46:58;1.15;;;0.93;;
13580;SDS011;6861;46.170;7.222;2023-05-17T20:49:27;1.98;;;0.88;;
13580;SDS011;6861;46.170;7.222;2023-05-17T20:51:58;2.30;;;0.85;;
13580;SDS011;6861;46.170;7.222;2023-05-17T20:54:28;2.72;;;1.00;;
13580;SDS011;6861;46.170;7.222;2023-05-17T20:56:58;2.60;;;0.90;;
13580;SDS011;6861;46.170;7.222;2023-05-17T20:59:27;1.00;;;0.80;;
13580;SDS011;6861;46.170;7.222;2023-05-17T21:01:56;1.48;;;0.85;;
13580;SDS011;6861;46.170;7.222;2023-05-17T21:04:25;2.10;;;1.00;;
13580;SDS011;6861;46.170;7.222;2023-05-17T21:06:53;2.28;;;1.10;;
13580;SDS011;6861;46.170;7.222;2023-05-17T21:09:25;1.50;;;1.02;;
13580;SDS011;6861;46.170;7.222;2023-05-17T21:11:53;1.17;;;0.90;;
13580;SDS011;6861;46.170;7.222;2023-05-17T21:14:23;2.45;;;0.95;;
13580;SDS011;6861;46.170;7.222;2023-05-17T21:16:51;1.50;;;0.90;;
13580;SDS011;6861;46.170;7.222;2023-05-17T21:19:20;1.48;;;0.90;;
13580;SDS011;6861;46.170;7.222;2023-05-17T21:21:49;1.17;;;0.90;;
13580;SDS011;6861;46.170;7.222;2023-05-17T21:24:17;1.63;;;0.90;;
13580;SDS011;6861;46.170;7.222;2023-05-17T21:26:45;3.22;;;1.10;;
13580;SDS011;6861;46.170;7.222;2023-05-17T21:29:13;1.35;;;1.00;;
13580;SDS011;6861;46.170;7.222;2023-05-17T21:31:43;2.25;;;1.10;;
13580;SDS011;6861;46.170;7.222;2023-05-17T21:34:11;4.78;;;1.13;;
13580;SDS011;6861;46.170;7.222;2023-05-17T21:36:39;2.13;;;1.00;;
13580;SDS011;6861;46.170;7.222;2023-05-17T21:39:08;1.50;;;1.15;;
13580;SDS011;6861;46.170;7.222;2023-05-17T21:41:36;2.00;;;1.00;;
13580;SDS011;6861;46.170;7.222;2023-05-17T21:44:04;2.10;;;1.00;;
13580;SDS011;6861;46.170;7.222;2023-05-17T21:46:32;1.83;;;1.13;;
13580;SDS011;6861;46.170;7.222;2023-05-17T21:49:02;2.58;;;0.95;;
13580;SDS011;6861;46.170;7.222;2023-05-17T21:51:30;1.60;;;0.95;;
13580;SDS011;6861;46.170;7.222;2023-05-17T21:53:59;1.50;;;1.00;;
13580;SDS011;6861;46.170;7.222;2023-05-17T21:56:27;1.13;;;1.02;;
13580;SDS011;6861;46.170;7.222;2023-05-17T21:58:55;1.55;;;0.95;;
13580;SDS011;6861;46.170;7.222;2023-05-17T22:01:24;0.90;;;0.90;;
13580;SDS011;6861;46.170;7.222;2023-05-17T22:03:52;2.55;;;1.38;;
13580;SDS011;6861;46.170;7.222;2023-05-17T22:06:22;4.35;;;1.20;;
13580;SDS011;6861;46.170;7.222;2023-05-17T22:08:50;2.20;;;1.25;;
13580;SDS011;6861;46.170;7.222;2023-05-17T22:11:18;1.25;;;0.80;;
13580;SDS011;6861;46.170;7.222;2023-05-17T22:13:48;2.13;;;1.10;;
13580;SDS011;6861;46.170;7.222;2023-05-17T22:16:17;2.97;;;1.20;;
13580;SDS011;6861;46.170;7.222;2023-05-17T22:18:47;1.35;;;1.10;;
13580;SDS011;6861;46.170;7.222;2023-05-17T22:21:17;1.40;;;1.10;;
13580;SDS011;6861;46.170;7.222;2023-05-17T22:23:49;2.70;;;1.13;;
13580;SDS011;6861;46.170;7.222;2023-05-17T22:26:17;2.78;;;1.30;;
13580;SDS011;6861;46.170;7.222;2023-05-17T22:28:46;1.50;;;0.93;;
13580;SDS011;6861;46.170;7.222;2023-05-17T22:31:15;1.67;;;0.90;;
13580;SDS011;6861;46.170;7.222;2023-05-17T22:33:44;3.15;;;1.20;;
13580;SDS011;6861;46.170;7.222;2023-05-17T22:36:12;1.63;;;0.88;;
13580;SDS011;6861;46.170;7.222;2023-05-17T22:38:42;2.50;;;1.05;;
13580;SDS011;6861;46.170;7.222;2023-05-17T22:41:12;1.33;;;1.00;;
13580;SDS011;6861;46.170;7.222;2023-05-17T22:43:40;2.00;;;1.15;;
13580;SDS011;6861;46.170;7.222;2023-05-17T22:46:08;1.65;;;0.90;;
13580;SDS011;6861;46.170;7.222;2023-05-17T22:48:36;1.13;;;0.90;;
13580;SDS011;6861;46.170;7.222;2023-05-17T22:51:06;3.08;;;1.05;;
13580;SDS011;6861;46.170;7.222;2023-05-17T22:53:34;1.10;;;0.90;;
13580;SDS011;6861;46.170;7.222;2023-05-17T22:58:34;2.63;;;1.00;;
13580;SDS011;6861;46.170;7.222;2023-05-17T23:01:02;4.32;;;1.20;;
13580;SDS011;6861;46.170;7.222;2023-05-17T23:03:30;1.50;;;1.10;;
13580;SDS011;6861;46.170;7.222;2023-05-17T23:05:58;1.88;;;0.93;;
13580;SDS011;6861;46.170;7.222;2023-05-17T23:08:28;2.03;;;1.10;;
13580;SDS011;6861;46.170;7.222;2023-05-17T23:10:57;1.55;;;1.10;;
13580;SDS011;6861;46.170;7.222;2023-05-17T23:13:25;1.30;;;1.00;;
13580;SDS011;6861;46.170;7.222;2023-05-17T23:15:55;1.83;;;1.00;;
13580;SDS011;6861;46.170;7.222;2023-05-17T23:18:23;3.30;;;0.90;;
13580;SDS011;6861;46.170;7.222;2023-05-17T23:20:53;2.42;;;0.90;;
13580;SDS011;6861;46.170;7.222;2023-05-17T23:23:21;2.45;;;1.02;;
13580;SDS011;6861;46.170;7.222;2023-05-17T23:25:49;1.98;;;1.17;;
13580;SDS011;6861;46.170;7.222;2023-05-17T23:28:22;1.27;;;1.00;;
13580;SDS011;6861;46.170;7.222;2023-05-17T23:30:50;1.20;;;1.00;;
13580;SDS011;6861;46.170;7.222;2023-05-17T23:33:21;1.45;;;1.02;;
13580;SDS011;6861;46.170;7.222;2023-05-17T23:35:49;2.15;;;1.00;;
13580;SDS011;6861;46.170;7.222;2023-05-17T23:38:20;1.63;;;0.98;;
13580;SDS011;6861;46.170;7.222;2023-05-17T23:40:48;1.80;;;1.10;;
13580;SDS011;6861;46.170;7.222;2023-05-17T23:43:16;2.38;;;1.10;;
13580;SDS011;6861;46.170;7.222;2023-05-17T23:45:45;2.60;;;1.17;;
13580;SDS011;6861;46.170;7.222;2023-05-17T23:48:13;2.78;;;1.00;;
13580;SDS011;6861;46.170;7.222;2023-05-17T23:50:43;2.20;;;1.10;;
13580;SDS011;6861;46.170;7.222;2023-05-17T23:53:11;2.42;;;1.10;;
13580;SDS011;6861;46.170;7.222;2023-05-17T23:55:39;1.73;;;1.00;;
13580;SDS011;6861;46.170;7.222;2023-05-17T23:58:07;2.10;;;0.90;;
